Time;durP1;ratioP1;P1;durP2;ratioP2;P2;SDS_P1;SDS_P2;PMS_P1;PMS_P2;Temp;Humidity;BMP_temperature;BMP_pressure;BME280_temperature;BME280_humidity;BME280_pressure;Samples;Min_cycle;Max_cycle;Signal;HPM_P1;HPM_P2
2022/10/16 00:01:17;;;;;;;;;;;;;;;16.61;71.35;100290.19;4951659;28;122181;-76
2022/10/16 00:03:43;;;;;;;;;;;;;;;16.60;71.44;100294.19;4972301;28;119909;-76
2022/10/16 00:06:10;;;;;;;;;;;;;;;16.58;71.39;100291.19;4969812;28;119860;-76
2022/10/16 00:08:36;;;;;;;;;;;;;;;16.56;71.35;100288.91;4980478;28;119779;-76
2022/10/16 00:11:04;;;;;;;;;;;;;;;16.55;71.52;100284.59;4969785;28;119989;-76
2022/10/16 00:13:31;;;;;;;;;;;;;;;16.54;71.40;100283.09;4968754;28;119898;-76
2022/10/16 00:15:58;;;;;;;;;;;;;;;16.51;71.44;100283.34;4978035;28;119741;-76
2022/10/16 00:18:24;;;;;;;;;;;;;;;16.51;71.22;100291.66;4975773;28;119981;-76
2022/10/16 00:20:49;;;;;;;;;;;;;;;16.50;71.54;100290.91;4975328;28;119365;-76
2022/10/16 00:23:34;;;;;;;;;;;;;;;16.49;71.46;100285.88;4968820;28;119565;-76
2022/10/16 00:26:01;;;;;;;;;;;;;;;16.49;71.29;100294.16;4976351;28;119513;-76
2022/10/16 00:28:27;;;;;;;;;;;;;;;16.47;71.34;100289.13;4972585;28;119929;-76
2022/10/16 00:31:02;;;;;;;;;;;;;;;16.46;71.45;100286.88;4973048;28;119796;-76
2022/10/16 00:33:28;;;;;;;;;;;;;;;16.45;71.27;100296.44;4947062;28;120475;-76
2022/10/16 00:35:53;;;;;;;;;;;;;;;16.45;71.64;100307.50;4963316;28;119434;-76
2022/10/16 00:38:19;;;;;;;;;;;;;;;16.43;71.37;100308.00;4969062;28;120363;-76
2022/10/16 00:40:44;;;;;;;;;;;;;;;16.44;71.39;100312.28;4974388;28;119478;-76
2022/10/16 00:43:29;;;;;;;;;;;;;;;16.44;71.49;100312.28;4931391;28;119662;-76
2022/10/16 00:45:54;;;;;;;;;;;;;;;16.45;71.61;100318.56;4952492;28;120042;-76
2022/10/16 00:48:20;;;;;;;;;;;;;;;16.45;71.34;100307.50;4966495;28;120312;-76
2022/10/16 00:50:45;;;;;;;;;;;;;;;16.45;71.44;100302.72;4952153;28;120181;-76
2022/10/16 00:53:11;;;;;;;;;;;;;;;16.45;71.37;100310.28;4967630;28;119925;-76
2022/10/16 00:55:37;;;;;;;;;;;;;;;16.44;71.37;100312.28;4974528;28;119655;-76
2022/10/16 00:58:03;;;;;;;;;;;;;;;16.44;71.21;100311.53;4967881;28;120177;-76
2022/10/16 01:00:28;;;;;;;;;;;;;;;16.43;71.21;100312.78;4970829;28;119863;-76
2022/10/16 01:02:55;;;;;;;;;;;;;;;16.42;71.16;100308.50;4970282;28;119846;-76
2022/10/16 01:05:30;;;;;;;;;;;;;;;16.41;71.10;100301.47;4962985;28;119554;-76
2022/10/16 01:07:55;;;;;;;;;;;;;;;16.40;71.31;100309.00;4950574;28;121334;-76
2022/10/16 01:10:35;;;;;;;;;;;;;;;16.40;71.23;100308.25;4958079;28;120229;-76
2022/10/16 01:13:08;;;;;;;;;;;;;;;16.38;70.98;100314.28;4972544;28;119452;-76
2022/10/16 01:15:47;;;;;;;;;;;;;;;16.37;70.98;100310.00;4962147;28;120670;-76
2022/10/16 01:18:31;;;;;;;;;;;;;;;16.35;70.88;100307.00;4965047;28;119732;-76
2022/10/16 01:21:00;;;;;;;;;;;;;;;16.35;71.11;100307.00;4970597;28;119880;-76
2022/10/16 01:23:38;;;;;;;;;;;;;;;16.34;70.91;100308.25;4964427;28;119324;-76
2022/10/16 01:26:19;;;;;;;;;;;;;;;16.34;71.01;100308.25;4970408;28;120260;-76
2022/10/16 01:28:53;;;;;;;;;;;;;;;16.35;71.06;100303.47;4968089;28;119390;-76
2022/10/16 01:31:21;;;;;;;;;;;;;;;16.37;71.05;100301.72;4968612;28;120219;-76
2022/10/16 01:33:50;;;;;;;;;;;;;;;16.38;71.28;100305.97;4974452;28;119973;-76
2022/10/16 01:36:20;;;;;;;;;;;;;;;16.39;71.01;100301.22;4966916;28;122251;-76
2022/10/16 01:38:49;;;;;;;;;;;;;;;16.38;71.22;100303.22;4986098;28;119673;-76
2022/10/16 01:41:36;;;;;;;;;;;;;;;16.38;70.92;100296.94;4964985;28;119898;-76
2022/10/16 01:44:04;;;;;;;;;;;;;;;16.36;70.88;100299.44;4965176;28;119545;-76
2022/10/16 01:46:31;;;;;;;;;;;;;;;16.34;70.77;100294.41;4977454;28;120444;-76
2022/10/16 01:48:59;;;;;;;;;;;;;;;16.33;70.63;100298.44;4939048;28;119632;-75
2022/10/16 01:51:25;;;;;;;;;;;;;;;16.32;70.82;100302.44;4966246;28;119899;-76
2022/10/16 01:53:53;;;;;;;;;;;;;;;16.31;70.81;100302.94;4967227;28;120252;-75
2022/10/16 01:56:22;;;;;;;;;;;;;;;16.30;70.79;100293.13;4958184;28;119606;-76
2022/10/16 01:58:54;;;;;;;;;;;;;;;16.29;70.91;100289.59;4961696;28;119910;-76
2022/10/16 02:01:22;;;;;;;;;;;;;;;16.27;70.79;100287.31;4981944;28;120208;-76
2022/10/16 02:03:51;;;;;;;;;;;;;;;16.24;70.73;100282.03;4975621;28;119564;-76
2022/10/16 02:06:16;;;;;;;;;;;;;;;16.23;71.12;100286.06;4980557;28;119699;-75
2022/10/16 02:08:43;;;;;;;;;;;;;;;16.22;70.97;100279.00;4966722;28;119534;-76
2022/10/16 02:11:10;;;;;;;;;;;;;;;16.19;70.89;100271.72;4981360;28;119559;-76
2022/10/16 02:13:45;;;;;;;;;;;;;;;16.17;71.00;100277.00;4968865;28;119837;-76
2022/10/16 02:16:11;;;;;;;;;;;;;;;16.15;70.87;100293.34;4986235;28;120285;-76
2022/10/16 02:18:38;;;;;;;;;;;;;;;16.13;71.07;100282.75;4974574;28;120031;-76
2022/10/16 02:21:13;;;;;;;;;;;;;;;16.12;70.87;100291.56;4973241;28;119603;-76
2022/10/16 02:24:02;;;;;;;;;;;;;;;16.12;70.93;100297.84;4953644;28;119472;-76
2022/10/16 02:26:30;;;;;;;;;;;;;;;16.10;71.02;100300.38;4979120;28;119873;-76
2022/10/16 02:29:00;;;;;;;;;;;;;;;16.10;71.00;100294.06;4972419;28;119928;-76
2022/10/16 02:31:29;;;;;;;;;;;;;;;16.09;70.99;100293.31;4973212;28;120179;-76
2022/10/16 02:33:58;;;;;;;;;;;;;;;16.08;71.01;100293.78;4972638;28;120075;-76
2022/10/16 02:36:24;;;;;;;;;;;;;;;16.07;71.20;100295.81;4980186;28;120322;-76
2022/10/16 02:38:53;;;;;;;;;;;;;;;16.08;70.89;100291.03;4975134;28;119789;-76
2022/10/16 02:41:21;;;;;;;;;;;;;;;16.07;71.02;100284.75;4971083;28;119501;-76
2022/10/16 02:43:46;;;;;;;;;;;;;;;16.08;70.96;100285.50;4958404;28;120313;-76
2022/10/16 02:46:12;;;;;;;;;;;;;;;16.07;71.07;100306.88;4968042;28;119963;-76
2022/10/16 02:48:39;;;;;;;;;;;;;;;16.06;70.90;100296.31;4967285;28;120576;-76
2022/10/16 02:51:04;;;;;;;;;;;;;;;16.07;71.07;100292.28;4951385;28;120523;-76
2022/10/16 02:53:30;;;;;;;;;;;;;;;16.07;70.97;100295.81;4963495;28;120165;-76
2022/10/16 02:55:58;;;;;;;;;;;;;;;16.07;71.17;100311.66;4952093;28;121286;-76
2022/10/16 02:58:24;;;;;;;;;;;;;;;16.06;70.78;100307.38;4971084;28;119751;-76
2022/10/16 03:00:49;;;;;;;;;;;;;;;16.05;70.98;100319.69;4952692;28;119551;-76
2022/10/16 03:03:15;;;;;;;;;;;;;;;16.05;70.95;100311.38;4945689;28;119982;-76
2022/10/16 03:05:42;;;;;;;;;;;;;;;16.04;71.04;100312.66;4979147;28;119549;-76
2022/10/16 03:08:08;;;;;;;;;;;;;;;16.03;70.93;100320.19;4969249;28;119885;-76
2022/10/16 03:10:33;;;;;;;;;;;;;;;16.04;71.03;100307.13;4968513;28;119501;-76
2022/10/16 03:12:59;;;;;;;;;;;;;;;16.03;70.73;100305.59;4971460;28;119419;-76
2022/10/16 03:15:25;;;;;;;;;;;;;;;16.02;70.92;100306.84;4952774;28;120667;-76
2022/10/16 03:17:51;;;;;;;;;;;;;;;16.00;71.04;100310.13;4953299;28;119597;-76
2022/10/16 03:20:16;;;;;;;;;;;;;;;15.99;70.80;100313.38;4970914;28;119695;-76
2022/10/16 03:22:44;;;;;;;;;;;;;;;15.98;70.62;100309.09;4972937;28;119415;-76
2022/10/16 03:25:10;;;;;;;;;;;;;;;15.95;70.77;100303.31;4970549;28;119753;-76
2022/10/16 03:27:36;;;;;;;;;;;;;;;15.95;70.73;100306.09;4956188;28;119657;-76
2022/10/16 03:30:02;;;;;;;;;;;;;;;15.94;70.83;100306.59;4968750;28;119785;-76
2022/10/16 03:32:28;;;;;;;;;;;;;;;15.93;70.65;100308.59;4971519;28;119349;-76
2022/10/16 03:34:56;;;;;;;;;;;;;;;15.91;70.76;100308.34;4973419;28;119986;-76
2022/10/16 03:37:21;;;;;;;;;;;;;;;15.90;70.97;100315.13;4984320;28;119644;-76
2022/10/16 03:39:47;;;;;;;;;;;;;;;15.90;70.80;100300.53;4977495;28;119437;-76
2022/10/16 03:42:12;;;;;;;;;;;;;;;15.90;70.91;100309.59;4959938;28;121767;-76
2022/10/16 03:44:38;;;;;;;;;;;;;;;15.89;70.65;100315.63;4969545;28;119490;-76
2022/10/16 03:47:04;;;;;;;;;;;;;;;15.87;70.86;100305.06;4971322;28;120074;-76
2022/10/16 03:49:29;;;;;;;;;;;;;;;15.87;70.78;100305.06;4975945;28;119891;-76
2022/10/16 03:51:55;;;;;;;;;;;;;;;15.86;70.63;100309.06;4988207;28;119792;-76
2022/10/16 03:54:22;;;;;;;;;;;;;;;15.83;70.43;100304.50;4980263;28;120531;-76
2022/10/16 03:56:47;;;;;;;;;;;;;;;15.83;70.46;100309.28;4970284;28;120104;-76
2022/10/16 03:59:13;;;;;;;;;;;;;;;15.81;70.84;100320.84;4970373;28;119975;-76
2022/10/16 04:01:38;;;;;;;;;;;;;;;15.81;70.72;100329.13;4960306;28;119934;-75
2022/10/16 04:04:04;;;;;;;;;;;;;;;15.79;70.89;100331.63;4973504;28;119629;-76
2022/10/16 04:06:29;;;;;;;;;;;;;;;15.80;70.63;100326.88;4953202;28;119535;-76
2022/10/16 04:09:18;;;;;;;;;;;;;;;15.80;70.57;100326.88;4971451;28;119595;-76
2022/10/16 04:11:44;;;;;;;;;;;;;;;15.79;70.75;100325.34;4952254;28;119614;-75
2022/10/16 04:14:09;;;;;;;;;;;;;;;15.78;70.62;100332.13;4950631;28;120013;-76
2022/10/16 04:16:35;;;;;;;;;;;;;;;15.76;70.50;100326.34;4969854;28;119413;-76
2022/10/16 04:19:00;;;;;;;;;;;;;;;15.74;70.71;100331.63;4970082;28;119373;-76
2022/10/16 04:21:31;;;;;;;;;;;;;;;15.73;70.83;100322.56;4952826;28;119621;-76
2022/10/16 04:23:57;;;;;;;;;;;;;;;15.72;70.98;100323.81;4964533;28;119799;-76
2022/10/16 04:26:23;;;;;;;;;;;;;;;15.72;70.62;100329.34;4964851;28;119900;-76
2022/10/16 04:28:48;;;;;;;;;;;;;;;15.71;70.56;100332.59;4974630;28;120073;-76
2022/10/16 04:31:14;;;;;;;;;;;;;;;15.71;70.65;100336.13;4977894;28;119853;-76
2022/10/16 04:33:41;;;;;;;;;;;;;;;15.70;70.78;100333.84;4969174;28;119747;-76
2022/10/16 04:36:08;;;;;;;;;;;;;;;15.69;70.69;100330.34;4970044;28;120182;-76
2022/10/16 04:38:33;;;;;;;;;;;;;;;15.69;70.53;100333.09;4974365;28;120144;-76
2022/10/16 04:40:59;;;;;;;;;;;;;;;15.69;70.72;100338.63;4960170;28;119559;-76
2022/10/16 04:43:25;;;;;;;;;;;;;;;15.69;70.61;100338.63;4970870;28;119468;-76
2022/10/16 04:45:51;;;;;;;;;;;;;;;15.71;70.66;100344.44;4980272;28;119418;-76
2022/10/16 04:48:17;;;;;;;;;;;;;;;15.75;70.90;100349.72;4968613;28;119646;-76
2022/10/16 04:50:43;;;;;;;;;;;;;;;15.76;70.73;100343.69;4961911;28;119453;-76
2022/10/16 04:53:08;;;;;;;;;;;;;;;15.77;70.67;100350.75;4968600;28;119947;-76
2022/10/16 04:55:34;;;;;;;;;;;;;;;15.80;70.74;100354.53;4956003;28;120394;-76
2022/10/16 04:58:00;;;;;;;;;;;;;;;15.81;70.68;100356.78;4966953;28;120004;-76
2022/10/16 05:00:25;;;;;;;;;;;;;;;15.85;70.44;100359.31;4974130;28;120174;-76
2022/10/16 05:02:51;;;;;;;;;;;;;;;15.87;70.83;100357.59;4968375;28;119570;-76
2022/10/16 05:05:19;;;;;;;;;;;;;;;15.91;70.72;100354.59;4949319;28;119781;-76
2022/10/16 05:07:45;;;;;;;;;;;;;;;15.93;70.70;100372.22;4968770;28;120015;-76
2022/10/16 05:10:10;;;;;;;;;;;;;;;15.96;70.74;100376.75;4970774;28;119982;-76
2022/10/16 05:12:36;;;;;;;;;;;;;;;15.99;70.63;100377.00;4972732;28;119962;-76
2022/10/16 05:15:02;;;;;;;;;;;;;;;15.99;70.40;100371.47;4970865;28;121483;-76
2022/10/16 05:17:27;;;;;;;;;;;;;;;16.01;70.54;100382.81;4970575;28;119837;-76
2022/10/16 05:19:56;;;;;;;;;;;;;;;16.02;70.62;100376.78;4968997;28;119502;-76
2022/10/16 05:22:21;;;;;;;;;;;;;;;16.05;70.50;100369.50;4978319;28;119398;-76
2022/10/16 05:24:47;;;;;;;;;;;;;;;16.07;70.58;100383.56;4972507;28;119681;-76
2022/10/16 05:27:18;;;;;;;;;;;;;;;16.10;70.61;100388.91;4964472;28;119695;-76
2022/10/16 05:29:47;;;;;;;;;;;;;;;16.11;70.57;100384.13;4957072;28;119604;-76
2022/10/16 05:32:14;;;;;;;;;;;;;;;16.13;70.60;100387.91;4968537;28;119641;-76
2022/10/16 05:34:43;;;;;;;;;;;;;;;16.13;70.36;100382.38;4970403;28;119585;-75
2022/10/16 05:37:09;;;;;;;;;;;;;;;16.15;70.60;100381.88;4971808;28;120113;-76
2022/10/16 05:39:37;;;;;;;;;;;;;;;16.17;70.32;100376.59;4956741;28;120059;-76
2022/10/16 05:42:02;;;;;;;;;;;;;;;16.18;70.77;100367.81;4980071;28;119621;-76
2022/10/16 05:44:28;;;;;;;;;;;;;;;16.21;70.51;100366.06;4970333;28;119789;-74
2022/10/16 05:46:53;;;;;;;;;;;;;;;16.22;70.40;100354.47;4959382;28;119837;-75
2022/10/16 05:49:42;;;;;;;;;;;;;;;16.23;70.41;100374.59;4964480;28;121438;-75
2022/10/16 05:52:08;;;;;;;;;;;;;;;16.22;70.42;100379.38;4981321;28;119731;-75
2022/10/16 05:54:33;;;;;;;;;;;;;;;16.21;70.30;100382.66;4973439;28;120098;-75
2022/10/16 05:56:59;;;;;;;;;;;;;;;16.20;70.23;100387.44;4973559;28;119732;-75
2022/10/16 05:59:25;;;;;;;;;;;;;;;16.18;70.15;100392.69;4973939;28;120476;-75
2022/10/16 06:01:50;;;;;;;;;;;;;;;16.18;70.15;100389.94;4968601;28;119723;-75
2022/10/16 06:04:16;;;;;;;;;;;;;;;16.19;69.96;100390.69;4947683;28;119756;-75
2022/10/16 06:06:41;;;;;;;;;;;;;;;16.21;70.46;100391.72;4941781;28;120229;-75
2022/10/16 06:09:07;;;;;;;;;;;;;;;16.23;70.31;100397.50;4960510;28;119933;-75
2022/10/16 06:11:33;;;;;;;;;;;;;;;16.24;70.17;100389.97;4971124;28;119886;-75
2022/10/16 06:14:02;;;;;;;;;;;;;;;16.27;70.17;100394.50;4957114;28;119934;-75
2022/10/16 06:16:28;;;;;;;;;;;;;;;16.30;70.17;100401.03;4940271;28;119814;-75
2022/10/16 06:18:55;;;;;;;;;;;;;;;16.32;70.12;100406.84;4984527;28;119788;-75
2022/10/16 06:21:39;;;;;;;;;;;;;;;16.34;69.93;100412.66;4969206;28;119533;-75
2022/10/16 06:24:04;;;;;;;;;;;;;;;16.33;69.85;100419.44;4971478;28;119452;-75
2022/10/16 06:26:30;;;;;;;;;;;;;;;16.34;69.96;100421.72;4978637;28;119584;-75
2022/10/16 06:28:57;;;;;;;;;;;;;;;16.34;69.87;100421.72;4959332;28;120045;-75
2022/10/16 06:31:23;;;;;;;;;;;;;;;16.32;69.58;100418.66;4972198;28;119915;-75
2022/10/16 06:33:51;;;;;;;;;;;;;;;16.32;69.55;100421.44;4956517;28;121349;-75
2022/10/16 06:36:17;;;;;;;;;;;;;;;16.31;69.50;100422.69;4981882;28;119660;-75
2022/10/16 06:38:43;;;;;;;;;;;;;;;16.25;69.40;100421.91;4965570;28;120103;-75
2022/10/16 06:41:11;;;;;;;;;;;;;;;16.33;69.50;100434.03;4945623;28;119886;-75
2022/10/16 06:43:36;;;;;;;;;;;;;;;16.37;69.41;100429.03;4974397;28;119970;-75
2022/10/16 06:46:02;;;;;;;;;;;;;;;16.42;69.51;100438.59;4975102;28;120229;-75
2022/10/16 06:48:29;;;;;;;;;;;;;;;16.45;69.36;100435.59;4980672;28;119769;-75
2022/10/16 06:51:15;;;;;;;;;;;;;;;16.46;69.18;100434.34;4974053;28;119769;-75
2022/10/16 06:54:03;;;;;;;;;;;;;;;16.48;68.90;100434.59;4968245;28;119631;-75
2022/10/16 06:56:54;;;;;;;;;;;;;;;16.47;68.99;100435.84;4970966;28;120745;-75
2022/10/16 06:59:46;;;;;;;;;;;;;;;16.48;68.90;100442.91;4971714;28;119963;-75
2022/10/16 07:02:11;;;;;;;;;;;;;;;16.49;69.22;100443.66;4956034;28;120131;-75
2022/10/16 07:05:03;;;;;;;;;;;;;;;16.54;68.96;100454.75;4977249;28;120223;-75
2022/10/16 07:07:28;;;;;;;;;;;;;;;16.56;68.94;100457.81;4953308;28;122135;-75
2022/10/16 07:09:54;;;;;;;;;;;;;;;16.57;69.07;100462.09;4971511;28;121239;-75
2022/10/16 07:12:19;;;;;;;;;;;;;;;16.62;68.93;100457.81;4929624;28;120632;-75
2022/10/16 07:15:04;;;;;;;;;;;;;;;16.63;68.83;100451.03;4972469;28;119802;-75
2022/10/16 07:17:29;;;;;;;;;;;;;;;16.66;68.80;100450.06;4970688;28;119818;-75
2022/10/16 07:20:30;;;;;;;;;;;;;;;16.71;68.62;100454.84;4956645;28;119744;-75
2022/10/16 07:22:56;;;;;;;;;;;;;;;16.74;68.42;100464.19;4966273;28;120086;-75
2022/10/16 07:25:21;;;;;;;;;;;;;;;16.77;68.45;100454.88;4975042;28;119793;-75
2022/10/16 07:27:47;;;;;;;;;;;;;;;16.83;68.29;100461.22;4960589;28;119549;-75
2022/10/16 07:30:13;;;;;;;;;;;;;;;16.89;68.52;100470.28;4971572;28;120288;-75
2022/10/16 07:32:38;;;;;;;;;;;;;;;16.96;68.39;100472.56;4971600;28;120064;-75
2022/10/16 07:35:04;;;;;;;;;;;;;;;17.02;68.22;100467.03;4945092;28;121195;-75
2022/10/16 07:37:30;;;;;;;;;;;;;;;17.05;67.99;100475.13;4964653;28;119922;-75
2022/10/16 07:39:55;;;;;;;;;;;;;;;17.04;67.78;100464.53;4971213;28;120039;-75
2022/10/16 07:42:21;;;;;;;;;;;;;;;17.03;67.76;100474.84;4976380;28;119334;-75
2022/10/16 07:44:47;;;;;;;;;;;;;;;17.02;67.62;100467.78;4980435;28;119553;-75
2022/10/16 07:47:12;;;;;;;;;;;;;;;17.00;67.72;100478.63;4960580;28;119828;-75
2022/10/16 07:49:38;;;;;;;;;;;;;;;17.04;67.92;100489.47;4975296;28;120131;-75
2022/10/16 07:52:04;;;;;;;;;;;;;;;17.05;68.13;100486.22;4968938;28;119883;-75
2022/10/16 07:54:29;;;;;;;;;;;;;;;17.11;67.78;100477.91;4971513;28;119553;-75
2022/10/16 07:56:55;;;;;;;;;;;;;;;17.17;67.92;100481.44;4975453;28;119629;-75
2022/10/16 07:59:20;;;;;;;;;;;;;;;17.23;67.56;100473.88;4983205;28;119553;-75
2022/10/16 08:01:46;;;;;;;;;;;;;;;17.33;67.66;100477.19;4957094;28;119963;-75
2022/10/16 08:04:11;;;;;;;;;;;;;;;17.41;67.41;100486.53;4952522;28;119545;-75
2022/10/16 08:06:38;;;;;;;;;;;;;;;17.49;67.36;100487.53;4979166;28;119440;-75
2022/10/16 08:09:04;;;;;;;;;;;;;;;17.57;66.99;100496.13;4981265;28;120029;-75
2022/10/16 08:11:29;;;;;;;;;;;;;;;17.58;66.69;100509.50;4968254;28;120021;-75
2022/10/16 08:14:04;;;;;;;;;;;;;;;17.60;nan;100515.28;4946174;28;122230;-75
2022/10/16 08:16:30;;;;;;;;;;;;;;;17.63;66.67;100521.84;4969367;28;119818;-75
2022/10/16 08:18:55;;;;;;;;;;;;;;;17.65;66.65;100514.53;4976071;28;119520;-75
2022/10/16 08:21:22;;;;;;;;;;;;;;;17.66;66.34;100527.13;4971248;28;120307;-75
2022/10/16 08:23:54;;;;;;;;;;;;;;;17.70;66.54;100518.59;4972471;28;119587;-75
2022/10/16 08:26:20;;;;;;;;;;;;;;;17.75;66.74;100515.84;4954089;28;120256;-75
2022/10/16 08:28:49;;;;;;;;;;;;;;;17.82;66.76;100522.13;4967908;28;119398;-75
2022/10/16 08:31:15;;;;;;;;;;;;;;;17.86;66.39;100522.63;4966007;28;119472;-75
2022/10/16 08:33:46;;;;;;;;;;;;;;;17.88;66.10;100529.19;4970940;28;120668;-75
2022/10/16 08:36:12;;;;;;;;;;;;;;;17.90;65.89;100518.34;4952021;28;119866;-75
2022/10/16 08:38:38;;;;;;;;;;;;;;;17.93;65.64;100522.13;4975202;28;120060;-75
2022/10/16 08:41:13;;;;;;;;;;;;;;;17.95;65.94;100519.59;4975805;28;119993;-75
2022/10/16 08:43:54;;;;;;;;;;;;;;;17.98;65.40;100519.38;4975900;28;120291;-75
2022/10/16 08:46:26;;;;;;;;;;;;;;;18.00;65.20;100529.97;4966908;28;120104;-75
2022/10/16 08:48:53;;;;;;;;;;;;;;;18.04;65.56;100530.47;4968509;28;120064;-75
2022/10/16 08:51:26;;;;;;;;;;;;;;;18.07;65.19;100538.53;4970382;28;119498;-75
2022/10/16 08:54:05;;;;;;;;;;;;;;;18.10;65.12;100547.84;4956439;28;120093;-75
2022/10/16 08:56:30;;;;;;;;;;;;;;;18.13;65.11;100555.16;4968545;28;119806;-75
2022/10/16 08:58:57;;;;;;;;;;;;;;;18.16;64.89;100561.72;4969601;28;119948;-75
2022/10/16 09:01:27;;;;;;;;;;;;;;;18.16;65.01;100556.16;4959670;28;140635;-75
2022/10/16 09:03:53;;;;;;;;;;;;;;;18.16;64.78;100559.69;4964378;28;120198;-75
2022/10/16 09:06:27;;;;;;;;;;;;;;;18.16;64.72;100576.34;4953575;28;120008;-75
2022/10/16 09:09:12;;;;;;;;;;;;;;;18.17;64.83;100566.00;4956282;28;120298;-75
2022/10/16 09:11:39;;;;;;;;;;;;;;;18.20;65.05;100573.31;4982734;28;119869;-75
2022/10/16 09:14:04;;;;;;;;;;;;;;;18.25;65.08;100578.91;4975747;28;119712;-75
2022/10/16 09:16:33;;;;;;;;;;;;;;;18.27;64.96;100576.38;4984488;28;120055;-75
2022/10/16 09:19:14;;;;;;;;;;;;;;;18.33;64.86;100585.44;4952240;28;119959;-75
2022/10/16 09:21:42;;;;;;;;;;;;;;;18.38;64.97;100593.00;4965606;28;119504;-75
2022/10/16 09:24:14;;;;;;;;;;;;;;;18.46;65.05;100592.50;4952985;28;120544;-75
2022/10/16 09:26:39;;;;;;;;;;;;;;;18.54;65.13;100590.72;4962531;28;119982;-75
2022/10/16 09:29:13;;;;;;;;;;;;;;;18.62;64.44;100591.69;4980832;28;120235;-75
2022/10/16 09:31:39;;;;;;;;;;;;;;;18.66;64.64;100597.78;4968493;28;119705;-75
2022/10/16 09:34:06;;;;;;;;;;;;;;;18.62;64.08;100606.38;4948626;28;119581;-75
2022/10/16 09:36:42;;;;;;;;;;;;;;;18.59;63.92;100603.84;4965406;28;119358;-75
2022/10/16 09:39:09;;;;;;;;;;;;;;;18.58;63.74;100608.63;4970547;28;119614;-75
2022/10/16 09:41:42;;;;;;;;;;;;;;;18.61;63.88;100609.63;4979606;28;120253;-75
2022/10/16 09:44:33;;;;;;;;;;;;;;;18.66;64.09;100629.09;4933605;28;120522;-75
2022/10/16 09:47:12;;;;;;;;;;;;;;;18.68;63.96;100615.44;4947019;28;119647;-75
2022/10/16 09:49:52;;;;;;;;;;;;;;;18.68;63.76;100623.78;4947406;28;120965;-75
2022/10/16 09:52:18;;;;;;;;;;;;;;;18.66;64.05;100620.00;4966277;28;119907;-75
2022/10/16 09:55:13;;;;;;;;;;;;;;;18.68;63.95;100603.59;4963507;28;119883;-75
2022/10/16 09:57:52;;;;;;;;;;;;;;;18.72;64.00;100615.22;4967047;28;119868;-75
2022/10/16 10:00:18;;;;;;;;;;;;;;;18.76;64.03;100612.94;4966993;28;120035;-75
2022/10/16 10:02:44;;;;;;;;;;;;;;;18.81;63.70;100622.50;4962185;28;120518;-75
2022/10/16 10:05:20;;;;;;;;;;;;;;;18.81;63.44;100631.59;4962517;28;120188;-75
2022/10/16 10:07:53;;;;;;;;;;;;;;;18.81;63.61;100637.16;4963384;28;119636;-75
2022/10/16 10:10:26;;;;;;;;;;;;;;;18.84;63.79;100632.59;4961796;28;119454;-75
2022/10/16 10:12:52;;;;;;;;;;;;;;;18.86;63.52;100644.72;4963123;28;120555;-75
2022/10/16 10:15:21;;;;;;;;;;;;;;;18.94;63.31;100653.31;4960865;28;119934;-75
2022/10/16 10:17:49;;;;;;;;;;;;;;;18.98;63.30;100662.16;4959641;28;119710;-75
2022/10/16 10:20:15;;;;;;;;;;;;;;;19.00;63.31;100654.81;4957530;28;120316;-75
2022/10/16 10:22:41;;;;;;;;;;;;;;;19.04;63.17;100662.13;4979490;28;120175;-75
2022/10/16 10:25:13;;;;;;;;;;;;;;;19.12;62.99;100644.41;4960187;28;119608;-75
2022/10/16 10:27:44;;;;;;;;;;;;;;;19.20;63.06;100655.78;4961375;28;120365;-75
2022/10/16 10:30:21;;;;;;;;;;;;;;;19.24;62.71;100678.50;4961190;28;120155;-75
2022/10/16 10:33:03;;;;;;;;;;;;;;;19.26;62.42;100668.38;4960744;28;119710;-75
2022/10/16 10:35:42;;;;;;;;;;;;;;;19.30;62.48;100662.53;4945431;28;119733;-75
2022/10/16 10:38:14;;;;;;;;;;;;;;;19.35;62.87;100656.19;4963043;28;120348;-75
2022/10/16 10:40:50;;;;;;;18.15;3.55;;;;;;;19.53;64.08;100657.63;4962757;28;120285;-75
2022/10/16 10:43:38;;;;;;;14.50;3.35;;;;;;;19.64;63.72;100674.31;4964204;28;119824;-75
2022/10/16 10:46:14;;;;;;;12.93;3.13;;;;;;;19.73;62.89;100639.88;4966759;28;120369;-75
2022/10/16 10:48:58;;;;;;;15.05;3.38;;;;;;;19.78;61.56;100666.91;4962322;28;120117;-75
2022/10/16 10:51:39;;;;;;;11.88;2.95;;;;;;;19.75;61.40;100676.28;4962011;28;120122;-75
2022/10/16 10:54:25;;;;;;;14.15;3.28;;;;;;;19.72;61.23;100658.59;4961971;28;119778;-75
2022/10/16 10:57:16;;;;;;;12.73;2.85;;;;;;;19.74;60.97;100669.97;4963721;28;119662;-75
2022/10/16 10:59:44;;;;;;;;;;;;;;;19.69;60.73;100676.31;4949521;28;120548;-75
2022/10/16 11:02:22;;;;;;;16.70;3.17;;;;;;;19.70;61.05;100674.28;4963850;28;120835;-75
2022/10/16 11:05:32;;;;;;;16.85;3.22;;;;;;;19.68;61.06;100671.28;4949169;28;120119;-75
2022/10/16 11:08:00;;;;;;;14.55;3.20;;;;;;;19.69;61.17;100693.00;4964392;28;120114;-75
2022/10/16 11:10:31;;;;;;;19.00;3.22;;;;;;;19.71;61.21;100689.72;4968169;28;119743;-75
2022/10/16 11:13:24;;;;;;;17.05;3.70;;;;;;;19.72;60.99;100699.56;4962972;28;120641;-75
2022/10/16 11:15:56;;;;;;;15.88;2.80;;;;;;;19.68;60.50;100697.06;4961256;28;120088;-75
2022/10/16 11:18:42;;;;;;;15.73;2.90;;;;;;;19.63;60.39;100704.16;4960913;28;120744;-75
2022/10/16 11:21:12;;;;;;;17.00;3.60;;;;;;;19.60;60.17;100710.75;4944635;28;120160;-75
2022/10/16 11:23:53;;;;;;;10.98;2.88;;;;;;;19.61;60.51;100706.69;4963925;28;119712;-75
2022/10/16 11:26:34;;;;;;;15.18;3.40;;;;;;;19.67;60.53;100728.94;4963680;28;119994;-75
2022/10/16 11:29:04;;;;;;;14.27;3.38;;;;;;;19.78;59.84;100733.69;4963137;28;119643;-75
2022/10/16 11:31:47;;;;;;;16.10;2.83;;;;;;;19.82;59.95;100736.97;4962473;28;119769;-75
2022/10/16 11:34:34;;;;;;;12.05;2.80;;;;;;;19.85;59.53;100747.06;4966747;28;120213;-75
2022/10/16 11:37:21;;;;;;;13.07;2.67;;;;;;;19.78;58.95;100737.22;4962277;28;119616;-75
2022/10/16 11:39:50;;;;;;;18.65;3.20;;;;;;;19.70;59.01;100758.53;4945329;28;120418;-75
2022/10/16 11:42:41;;;;;;;17.27;3.45;;;;;;;19.67;59.34;100759.56;4946944;28;120585;-75
2022/10/16 11:45:28;;;;;;;14.13;2.85;;;;;;;19.66;59.31;100769.19;4958207;28;120261;-75
2022/10/16 11:48:08;;;;;;;16.70;2.85;;;;;;;19.64;59.20;100755.03;4964343;28;120452;-75
2022/10/16 11:50:45;;;;;;;17.92;3.38;;;;;;;19.56;59.31;100765.91;4947878;28;120083;-75
2022/10/16 11:54:09;;;;;;;16.95;3.17;;;;;;;19.53;59.70;100764.16;4940176;28;120194;-75
2022/10/16 11:56:40;;;;;;;14.07;4.15;;;;;;;19.54;59.59;100756.56;4965012;28;120143;-75
2022/10/16 11:59:42;;;;;;;22.98;5.15;;;;;;;19.65;60.20;100778.03;4971665;28;120161;-75
2022/10/16 12:02:13;;;;;;;37.20;10.75;;;;;;;19.69;59.23;100790.41;4965288;28;120026;-75
2022/10/16 12:04:46;;;;;;;98.28;29.35;;;;;;;19.62;59.43;100783.31;4948396;28;122230;-75
2022/10/16 12:07:18;;;;;;;132.55;40.05;;;;;;;19.56;59.48;100788.16;4966445;28;120377;-75
2022/10/16 12:09:44;;;;;;;68.38;19.58;;;;;;;19.49;60.21;100797.00;4948109;28;120223;-75
2022/10/16 12:12:34;;;;;;;15.80;4.65;;;;;;;19.36;61.08;100787.66;4963911;28;120204;-75
2022/10/16 12:15:17;;;;;;;24.85;6.63;;;;;;;19.25;62.47;100803.13;4950272;28;119626;-75
2022/10/16 12:17:43;;;;;;;15.73;4.22;;;;;;;19.20;63.84;100797.56;4966212;28;119896;-75
2022/10/16 12:20:14;;;;;;;24.23;4.00;;;;;;;19.22;63.86;100808.94;4947545;28;120075;-75
2022/10/16 12:23:03;;;;;;;23.73;5.50;;;;;;;19.20;63.55;100811.47;4966287;28;120348;-75
2022/10/16 12:25:34;;;;;;;20.35;3.90;;;;;;;19.16;63.05;100828.41;4962150;28;121118;-75
2022/10/16 12:28:03;;;;;;;23.00;4.32;;;;;;;19.04;63.12;100829.69;4946083;28;120080;-75
2022/10/16 12:30:32;;;;;;;16.75;4.70;;;;;;;18.92;63.46;100825.38;4963702;28;120208;-75
2022/10/16 12:33:20;;;;;;;21.15;4.10;;;;;;;18.83;63.49;100837.50;4962177;28;120499;-75